createdAt,value
2018-09-06T00:00:10.989Z,5.80
2018-09-06T00:02:39.262Z,6.33
2018-09-06T00:05:07.504Z,6.30
2018-09-06T00:07:35.730Z,6.00
2018-09-06T00:10:04.803Z,5.72
2018-09-06T00:12:33.039Z,5.53
2018-09-06T00:15:01.273Z,5.90
2018-09-06T00:17:29.653Z,5.62
2018-09-06T00:19:58.038Z,5.85
2018-09-06T00:22:26.254Z,6.30
2018-09-06T00:24:55.078Z,5.92
2018-09-06T00:27:23.502Z,6.15
2018-09-06T00:29:51.714Z,5.90
2018-09-06T00:32:21.125Z,6.10
2018-09-06T00:34:49.343Z,6.28
2018-09-06T00:37:17.582Z,5.78
2018-09-06T00:39:46.266Z,5.50
2018-09-06T00:42:14.561Z,5.97
2018-09-06T00:44:42.810Z,5.55
2018-09-06T00:47:11.718Z,6.08
2018-09-06T00:49:40.089Z,5.47
2018-09-06T00:52:08.347Z,6.33
2018-09-06T00:54:37.259Z,5.90
2018-09-06T00:57:05.477Z,6.05
2018-09-06T00:59:33.714Z,5.50
2018-09-06T01:02:02.394Z,6.00
2018-09-06T01:04:30.648Z,5.53
2018-09-06T01:06:58.873Z,5.30
2018-09-06T01:09:27.534Z,5.83
2018-09-06T01:11:55.897Z,5.72
2018-09-06T01:14:24.138Z,5.50
2018-09-06T01:16:53.078Z,5.30
2018-09-06T01:19:21.326Z,5.50
2018-09-06T01:21:49.541Z,6.00
2018-09-06T01:24:19.029Z,5.33
2018-09-06T01:26:47.266Z,5.75
2018-09-06T01:29:15.501Z,5.42
2018-09-06T01:31:47.564Z,5.28
2018-09-06T01:34:16.353Z,5.83
2018-09-06T01:36:46.362Z,5.87
2018-09-06T01:39:15.014Z,5.37
2018-09-06T01:41:43.393Z,5.33
2018-09-06T01:44:11.772Z,5.45
2018-09-06T01:46:40.485Z,5.53
2018-09-06T01:49:09.110Z,5.87
2018-09-06T01:51:37.355Z,5.35
2018-09-06T01:54:06.549Z,6.00
2018-09-06T01:56:34.766Z,5.33
2018-09-06T01:59:03.070Z,5.12
2018-09-06T02:01:31.794Z,5.42
2018-09-06T02:04:01.705Z,5.25
2018-09-06T02:06:30.333Z,5.72
2018-09-06T02:08:58.702Z,5.75
2018-09-06T02:11:26.941Z,5.80
2018-09-06T02:13:55.154Z,5.50
2018-09-06T02:16:23.922Z,5.50
2018-09-06T02:18:52.652Z,5.60
2018-09-06T02:21:20.873Z,5.45
2018-09-06T02:23:49.980Z,5.40
2018-09-06T02:26:18.285Z,5.80
2018-09-06T02:28:46.530Z,5.30
2018-09-06T02:31:14.896Z,5.42
2018-09-06T02:33:43.122Z,5.22
2018-09-06T02:36:11.457Z,5.47
2018-09-06T02:38:40.141Z,5.22
2018-09-06T02:41:08.379Z,5.55
2018-09-06T02:43:36.615Z,5.08
2018-09-06T02:46:05.586Z,5.67
2018-09-06T02:48:40.044Z,5.72
2018-09-06T02:51:17.394Z,5.17
2018-09-06T02:53:45.632Z,5.35
2018-09-06T02:56:14.503Z,5.60
2018-09-06T02:58:42.833Z,5.45
2018-09-06T03:01:11.258Z,5.25
2018-09-06T03:03:39.509Z,5.50
2018-09-06T03:06:09.823Z,5.08
2018-09-06T03:08:38.062Z,5.37
2018-09-06T03:11:12.243Z,5.47
2018-09-06T03:13:40.562Z,5.22
2018-09-06T03:16:08.786Z,5.75
2018-09-06T03:18:37.088Z,5.10
2018-09-06T03:21:05.346Z,5.42
2018-09-06T03:23:33.601Z,5.12
2018-09-06T03:26:04.538Z,5.28
2018-09-06T03:28:32.836Z,5.05
2018-09-06T03:31:01.068Z,4.95
2018-09-06T03:33:31.728Z,5.87
2018-09-06T03:36:00.084Z,4.85
2018-09-06T03:38:28.186Z,5.20
2018-09-06T03:40:57.373Z,5.03
2018-09-06T03:43:25.604Z,5.25
2018-09-06T03:45:53.859Z,5.58
2018-09-06T03:48:22.218Z,5.08
2018-09-06T03:50:50.451Z,5.05
2018-09-06T03:53:18.675Z,5.33
2018-09-06T03:55:46.965Z,5.65
2018-09-06T03:58:15.286Z,5.00
2018-09-06T04:00:43.778Z,5.42
2018-09-06T04:03:12.783Z,5.08
2018-09-06T04:05:41.106Z,5.50
2018-09-06T04:08:09.834Z,5.20
2018-09-06T04:10:38.096Z,5.03
2018-09-06T04:13:06.322Z,4.87
2018-09-06T04:15:34.562Z,5.40
2018-09-06T04:18:02.906Z,5.20
2018-09-06T04:20:31.174Z,4.90
2018-09-06T04:22:59.393Z,5.00
2018-09-06T04:25:27.890Z,5.03
2018-09-06T04:27:56.207Z,4.83
2018-09-06T04:30:24.418Z,4.65
2018-09-06T04:32:52.828Z,5.17
2018-09-06T04:35:21.052Z,5.00
2018-09-06T04:37:49.334Z,5.15
2018-09-06T04:40:17.624Z,5.10
2018-09-06T04:42:45.842Z,5.08
2018-09-06T06:11:28.141Z,5.47
2018-09-06T06:13:56.378Z,6.00
2018-09-06T06:16:24.785Z,5.17
2018-09-06T06:18:53.017Z,8.53
2018-09-06T06:21:21.403Z,10.93
2018-09-06T06:23:50.230Z,9.23
2018-09-06T06:26:18.491Z,8.80
2018-09-06T06:28:46.703Z,8.80
2018-09-06T06:31:15.271Z,9.05
2018-09-06T06:33:43.590Z,8.03
2018-09-06T06:36:11.823Z,8.55
2018-09-06T06:38:40.510Z,8.43
2018-09-06T06:41:08.748Z,7.85
2018-09-06T06:43:37.039Z,8.25
2018-09-06T06:46:05.391Z,7.30
2018-09-06T06:48:33.793Z,7.83
2018-09-06T06:51:02.010Z,7.87
2018-09-06T06:53:30.988Z,7.85
2018-09-06T06:55:59.217Z,7.95
2018-09-06T06:58:27.530Z,7.33
2018-09-06T07:00:56.442Z,7.60
2018-09-06T07:03:24.642Z,8.05
2018-09-06T07:05:52.969Z,7.65
2018-09-06T07:08:21.783Z,7.17
2018-09-06T07:10:50.039Z,7.70
2018-09-06T07:13:20.178Z,7.65
2018-09-06T07:15:48.437Z,7.42
2018-09-06T07:18:16.870Z,8.05
2018-09-06T07:20:45.197Z,7.60
2018-09-06T07:23:13.435Z,7.55
2018-09-06T07:25:41.651Z,7.25
2018-09-06T07:28:10.650Z,7.33
2018-09-06T07:30:39.006Z,7.85
2018-09-06T07:33:07.323Z,7.78
2018-09-06T07:35:35.590Z,7.37
2018-09-06T07:38:03.928Z,7.05
2018-09-06T07:40:32.141Z,7.55
2018-09-06T07:43:00.438Z,7.47
2018-09-06T07:45:28.666Z,7.08
2018-09-06T07:47:56.870Z,7.60
2018-09-06T07:50:25.652Z,7.75
2018-09-06T07:52:53.866Z,7.30
2018-09-06T07:55:22.093Z,8.08
2018-09-06T07:57:51.054Z,8.03
2018-09-06T08:00:19.353Z,8.13
2018-09-06T08:02:47.588Z,7.55
2018-09-06T08:05:17.466Z,7.58
2018-09-06T08:07:45.681Z,7.28
2018-09-06T08:10:13.921Z,7.78
2018-09-06T08:12:42.397Z,7.47
2018-09-06T08:15:10.646Z,7.65
2018-09-06T08:17:38.954Z,7.50
2018-09-06T08:20:07.841Z,7.90
2018-09-06T08:22:36.080Z,7.53
2018-09-06T08:25:04.319Z,7.58
2018-09-06T08:27:33.286Z,7.10
2018-09-06T08:30:01.523Z,7.75
2018-09-06T08:32:29.766Z,7.40
2018-09-06T08:34:58.035Z,8.10
2018-09-06T08:37:26.262Z,7.17
2018-09-06T08:39:54.496Z,7.58
2018-09-06T08:42:22.781Z,7.97
2018-09-06T08:44:51.014Z,7.75
2018-09-06T08:47:19.330Z,7.90
2018-09-06T08:49:48.086Z,7.75
2018-09-06T08:52:16.355Z,7.78
2018-09-06T08:54:44.554Z,7.33
2018-09-06T08:57:13.567Z,7.90
2018-09-06T08:59:41.795Z,7.33
2018-09-06T09:02:12.115Z,7.33
2018-09-06T09:04:40.519Z,8.08
2018-09-06T09:07:09.838Z,8.28
2018-09-06T09:09:38.246Z,7.25
2018-09-06T09:12:06.490Z,7.58
2018-09-06T09:14:34.759Z,7.75
2018-09-06T09:17:03.031Z,7.70
2018-09-06T09:19:31.274Z,7.47
2018-09-06T09:22:00.294Z,7.15
2018-09-06T09:24:28.526Z,7.47
2018-09-06T09:26:56.741Z,7.83
2018-09-06T09:29:25.548Z,7.83
2018-09-06T09:31:53.981Z,6.97
2018-09-06T09:34:22.202Z,7.62
2018-09-06T09:36:50.570Z,7.60
2018-09-06T09:39:18.811Z,7.17
2018-09-06T09:41:47.123Z,7.78
2018-09-06T09:44:15.611Z,7.83
2018-09-06T09:49:11.417Z,7.72
2018-09-06T09:51:40.435Z,8.03
2018-09-06T09:54:08.701Z,7.25
2018-09-06T09:56:36.922Z,7.50
2018-09-06T09:59:05.233Z,7.70
2018-09-06T10:01:38.880Z,7.87
2018-09-06T10:04:12.877Z,7.70
2018-09-06T10:06:46.535Z,7.67
2018-09-06T10:09:17.617Z,7.10
2018-09-06T10:11:46.005Z,7.47
2018-09-06T10:14:14.749Z,7.95
2018-09-06T10:16:43.114Z,7.35
2018-09-06T10:19:11.358Z,7.97
2018-09-06T10:21:39.690Z,7.83
2018-09-06T10:24:08.221Z,7.83
2018-09-06T10:26:36.666Z,7.62
2018-09-06T10:29:04.938Z,7.50
2018-09-06T10:31:34.257Z,7.53
2018-09-06T10:34:02.478Z,7.12
2018-09-06T10:36:30.725Z,7.72
2018-09-06T10:38:59.197Z,7.33
2018-09-06T10:41:27.619Z,7.55
2018-09-06T10:43:56.308Z,7.40
2018-09-06T10:46:24.973Z,7.92
2018-09-06T10:48:53.229Z,8.08
2018-09-06T10:51:21.529Z,8.15
2018-09-06T10:53:50.514Z,7.55
2018-09-06T10:56:18.843Z,7.67
2018-09-06T10:58:47.282Z,8.48
2018-09-06T11:01:21.579Z,7.95
2018-09-06T11:03:55.994Z,7.58
2018-09-06T11:06:25.025Z,8.13
2018-09-06T11:08:53.464Z,7.53
2018-09-06T11:11:21.815Z,8.03
2018-09-06T11:13:50.538Z,7.92
2018-09-06T11:16:19.277Z,8.40
2018-09-06T11:18:47.490Z,7.47
2018-09-06T11:21:16.666Z,7.60
2018-09-06T11:23:44.724Z,8.48
2018-09-06T11:26:13.046Z,8.00
2018-09-06T11:28:42.150Z,7.92
2018-09-06T11:31:10.353Z,8.10
2018-09-06T11:33:38.675Z,7.53
2018-09-06T11:36:07.063Z,7.83
2018-09-06T11:38:35.465Z,8.20
2018-09-06T11:41:03.775Z,8.00
2018-09-06T11:43:33.136Z,7.87
2018-09-06T11:46:01.376Z,8.00
2018-09-06T11:48:29.625Z,8.40
2018-09-06T11:50:58.334Z,8.10
2018-09-06T11:53:26.598Z,7.85
2018-09-06T11:55:54.915Z,7.97
2018-09-06T11:58:23.720Z,8.25
2018-09-06T12:00:51.965Z,7.83
2018-09-06T12:03:20.251Z,7.75
2018-09-06T12:05:49.466Z,7.45
2018-09-06T12:08:17.783Z,7.92
2018-09-06T12:10:46.024Z,8.00
2018-09-06T12:13:14.606Z,7.67
2018-09-06T12:15:42.906Z,7.83
2018-09-06T12:18:11.141Z,7.65
2018-09-06T12:20:39.451Z,7.85
2018-09-06T12:23:07.718Z,7.95
2018-09-06T12:25:35.956Z,8.03
2018-09-06T12:28:04.466Z,7.95
2018-09-06T12:30:32.715Z,8.30
2018-09-06T12:33:00.977Z,8.18
2018-09-06T12:35:29.342Z,7.95
2018-09-06T12:37:57.567Z,8.00
2018-09-06T12:40:25.802Z,7.60
2018-09-06T12:42:54.552Z,7.85
2018-09-06T12:45:22.788Z,7.78
2018-09-06T12:47:51.044Z,7.97
2018-09-06T12:50:19.455Z,7.50
2018-09-06T12:52:47.685Z,7.65
2018-09-06T12:55:15.995Z,7.55
2018-09-06T12:57:45.127Z,7.37
2018-09-06T13:00:13.345Z,7.87
2018-09-06T13:02:41.686Z,8.13
2018-09-06T13:05:10.366Z,7.58
2018-09-06T13:07:42.743Z,7.97
2018-09-06T13:10:11.625Z,7.70
2018-09-06T13:12:39.862Z,7.42
2018-09-06T13:15:08.147Z,7.90
2018-09-06T13:17:36.838Z,7.58
2018-09-06T13:20:05.715Z,8.13
2018-09-06T13:22:33.938Z,8.50
2018-09-06T13:25:02.418Z,7.65
2018-09-06T13:27:30.652Z,7.75
2018-09-06T13:29:58.946Z,7.15
2018-09-06T13:32:27.228Z,8.20
2018-09-06T13:34:55.543Z,7.87
2018-09-06T13:37:23.857Z,8.38
2018-09-06T13:39:52.183Z,7.90
2018-09-06T13:42:20.402Z,7.97
2018-09-06T13:44:48.715Z,7.45
2018-09-06T13:47:18.552Z,7.67
2018-09-06T13:49:46.789Z,7.70
2018-09-06T13:52:15.123Z,8.00
2018-09-06T13:54:43.891Z,7.72
2018-09-06T13:57:12.205Z,7.50
2018-09-06T13:59:40.438Z,8.05
2018-09-06T14:02:09.243Z,8.25
2018-09-06T14:04:40.188Z,7.30
2018-09-06T14:07:08.481Z,7.95
2018-09-06T14:09:37.133Z,7.87
2018-09-06T14:12:06.196Z,7.58
2018-09-06T14:14:34.420Z,7.20
2018-09-06T14:17:03.706Z,7.70
2018-09-06T14:19:31.962Z,7.95
2018-09-06T14:22:00.627Z,7.85
2018-09-06T14:24:33.038Z,7.67
2018-09-06T14:27:01.346Z,8.20
2018-09-06T14:29:29.602Z,7.83
2018-09-06T14:31:58.629Z,7.97
2018-09-06T14:34:26.958Z,7.72
2018-09-06T14:36:55.204Z,7.60
2018-09-06T14:39:24.651Z,7.05
2018-09-06T14:41:52.890Z,7.47
2018-09-06T14:44:21.210Z,7.65
2018-09-06T14:46:49.748Z,7.40
2018-09-06T14:49:17.985Z,8.00
2018-09-06T14:51:46.306Z,7.22
2018-09-06T14:54:14.731Z,7.53
2018-09-06T14:56:43.026Z,6.78
2018-09-06T14:59:11.263Z,7.20
2018-09-06T15:01:40.086Z,7.60
2018-09-06T15:04:08.335Z,7.30
2018-09-06T15:06:36.643Z,7.12
2018-09-06T15:09:08.028Z,7.40
2018-09-06T15:11:37.423Z,7.17
2018-09-06T15:14:05.838Z,7.03
2018-09-06T15:16:34.759Z,7.35
2018-09-06T15:19:03.202Z,7.30
2018-09-06T15:21:31.583Z,7.10
2018-09-06T15:24:00.195Z,7.10
2018-09-06T15:26:28.417Z,7.17
2018-09-06T15:28:56.646Z,6.92
2018-09-06T15:31:24.928Z,7.03
2018-09-06T15:33:53.348Z,7.45
2018-09-06T15:36:21.654Z,6.70
2018-09-06T15:38:50.254Z,7.20
2018-09-06T15:41:18.505Z,6.80
2018-09-06T15:43:46.739Z,7.00
2018-09-06T15:46:16.327Z,7.25
2018-09-06T15:48:44.723Z,6.87
2018-09-06T15:51:13.189Z,7.00
2018-09-06T15:53:41.555Z,6.90
2018-09-06T15:56:09.887Z,6.33
2018-09-06T15:58:38.118Z,7.20
2018-09-06T16:01:07.418Z,6.95
2018-09-06T16:03:35.863Z,7.15
2018-09-06T16:06:04.078Z,6.37
2018-09-06T16:08:32.423Z,6.70
2018-09-06T16:11:00.647Z,6.70
2018-09-06T16:13:30.070Z,6.42
2018-09-06T16:15:58.930Z,6.80
2018-09-06T16:18:27.287Z,6.60
2018-09-06T16:20:55.631Z,6.95
2018-09-06T16:23:25.669Z,6.45
2018-09-06T16:25:53.934Z,7.00
2018-09-06T16:28:22.167Z,6.53
2018-09-06T16:30:50.734Z,6.70
2018-09-06T16:33:18.990Z,6.55
2018-09-06T16:35:47.255Z,6.83
2018-09-06T16:38:16.166Z,6.55
2018-09-06T16:40:44.451Z,7.10
2018-09-06T16:43:12.847Z,7.03
2018-09-06T16:45:41.522Z,6.40
2018-09-06T16:48:09.745Z,6.72
2018-09-06T16:50:38.026Z,6.85
2018-09-06T16:53:06.741Z,7.20
2018-09-06T16:55:35.071Z,6.50
2018-09-06T16:58:03.553Z,6.28
2018-09-06T17:00:32.318Z,6.85
2018-09-06T17:03:01.062Z,6.40
2018-09-06T17:05:30.703Z,6.22
2018-09-06T17:07:58.983Z,7.03
2018-09-06T17:10:27.323Z,6.30
2018-09-06T17:12:56.136Z,6.75
2018-09-06T17:15:24.936Z,6.70
2018-09-06T17:17:53.212Z,6.80
2018-09-06T17:20:21.722Z,6.55
2018-09-06T17:22:49.973Z,6.55
2018-09-06T17:25:18.318Z,7.05
2018-09-06T17:27:47.955Z,6.47
2018-09-06T17:30:16.199Z,6.55
2018-09-06T17:32:44.551Z,6.78
2018-09-06T17:35:13.103Z,7.47
2018-09-06T17:37:41.345Z,7.25
2018-09-06T17:40:09.615Z,7.15
2018-09-06T17:42:38.350Z,7.22
2018-09-06T17:45:06.683Z,6.65
2018-09-06T17:47:35.614Z,6.85
2018-09-06T17:50:05.128Z,7.85
2018-09-06T17:52:33.442Z,6.60
2018-09-06T17:55:01.754Z,7.12
2018-09-06T17:57:30.279Z,6.85
2018-09-06T17:59:58.788Z,6.62
2018-09-06T18:02:27.029Z,6.75
2018-09-06T18:04:56.457Z,6.90
2018-09-06T18:07:24.794Z,7.22
2018-09-06T18:09:53.051Z,6.70
2018-09-06T18:12:21.751Z,6.70
2018-09-06T18:14:50.128Z,6.85
2018-09-06T18:17:20.293Z,6.72
2018-09-06T18:19:49.146Z,6.85
2018-09-06T18:22:17.435Z,7.30
2018-09-06T18:24:45.959Z,6.75
2018-09-06T18:27:14.790Z,7.37
2018-09-06T18:29:44.799Z,6.95
2018-09-06T18:32:13.067Z,6.60
2018-09-06T18:34:41.483Z,6.47
2018-09-06T18:37:09.786Z,6.47
2018-09-06T18:39:38.028Z,6.58
2018-09-06T18:42:07.441Z,6.45
2018-09-06T18:44:35.793Z,6.92
2018-09-06T18:47:04.086Z,7.33
2018-09-06T18:49:32.771Z,6.20
2018-09-06T18:52:01.149Z,6.75
2018-09-06T18:54:29.395Z,6.78
2018-09-06T18:56:58.016Z,6.70
2018-09-06T18:59:26.433Z,5.85
2018-09-06T19:01:54.660Z,6.47
2018-09-06T19:04:26.117Z,6.90
2018-09-06T19:06:54.465Z,6.45
2018-09-06T19:09:22.752Z,6.67
2018-09-06T19:11:51.363Z,6.35
2018-09-06T19:14:19.711Z,6.60
2018-09-06T19:16:47.956Z,6.30
2018-09-06T19:19:18.915Z,6.17
2018-09-06T19:21:47.408Z,6.70
2018-09-06T19:24:15.643Z,6.22
2018-09-06T19:26:44.506Z,5.67
2018-09-06T19:29:12.778Z,5.87
2018-09-06T19:31:41.156Z,6.28
2018-09-06T19:34:10.455Z,6.03
2018-09-06T19:36:38.710Z,6.15
2018-09-06T19:39:09.685Z,5.95
2018-09-06T19:41:38.246Z,6.28
2018-09-06T19:44:06.546Z,5.87
2018-09-06T19:46:34.788Z,6.58
2018-09-06T19:49:03.374Z,6.15
2018-09-06T19:51:31.645Z,6.10
2018-09-06T19:54:00.428Z,5.87
2018-09-06T19:56:28.954Z,6.30
2018-09-06T19:58:57.202Z,6.25
2018-09-06T20:01:25.527Z,5.75
2018-09-06T20:03:55.886Z,5.70
2018-09-06T20:06:24.111Z,6.55
2018-09-06T20:08:52.342Z,5.95
2018-09-06T20:11:21.267Z,5.67
2018-09-06T20:13:49.575Z,5.95
2018-09-06T20:16:17.819Z,6.03
2018-09-06T20:18:47.220Z,5.47
2018-09-06T20:21:16.243Z,5.80
2018-09-06T20:23:44.563Z,6.15
2018-09-06T20:26:13.391Z,5.95
2018-09-06T20:28:41.620Z,5.85
2018-09-06T20:31:09.967Z,5.72
2018-09-06T20:33:38.995Z,5.65
2018-09-06T20:36:07.365Z,5.47
2018-09-06T20:38:35.611Z,6.08
2018-09-06T20:41:05.414Z,5.40
2018-09-06T20:43:33.673Z,6.00
2018-09-06T20:46:01.906Z,5.40
2018-09-06T20:48:30.988Z,5.58
2018-09-06T20:50:59.251Z,6.28
2018-09-06T20:53:27.603Z,5.67
2018-09-06T20:55:58.903Z,6.40
2018-09-06T20:58:33.982Z,5.53
2018-09-06T21:01:03.102Z,5.15
2018-09-06T21:03:31.374Z,5.60
2018-09-06T21:05:59.782Z,5.87
2018-09-06T21:08:28.166Z,5.70
2018-09-06T21:10:56.457Z,5.35
2018-09-06T21:13:24.777Z,5.78
2018-09-06T21:15:53.069Z,5.37
2018-09-06T21:18:21.291Z,5.25
2018-09-06T21:20:49.544Z,5.10
2018-09-06T21:23:19.117Z,4.90
2018-09-06T21:25:47.382Z,5.10
2018-09-06T21:28:15.722Z,5.33
2018-09-06T21:30:44.356Z,5.42
2018-09-06T21:33:12.654Z,5.58
2018-09-06T21:35:41.010Z,5.40
2018-09-06T21:38:09.703Z,4.62
2018-09-06T21:40:38.010Z,5.17
2018-09-06T21:43:06.447Z,4.90
2018-09-06T21:45:36.075Z,5.10
2018-09-06T21:48:04.370Z,5.03
2018-09-06T21:50:32.600Z,5.33
2018-09-06T21:53:01.191Z,5.17
2018-09-06T21:55:29.438Z,5.00
2018-09-06T21:57:57.649Z,5.08
2018-09-06T22:00:25.945Z,5.37
2018-09-06T22:02:59.734Z,5.25
2018-09-06T22:05:28.723Z,4.97
2018-09-06T22:07:57.031Z,5.22
2018-09-06T22:10:25.358Z,5.53
2018-09-06T22:12:54.379Z,4.72
2018-09-06T22:15:22.603Z,5.00
2018-09-06T22:17:50.836Z,4.87
2018-09-06T22:20:19.307Z,5.28
2018-09-06T22:22:47.558Z,5.05
2018-09-06T22:25:16.599Z,4.90
2018-09-06T22:27:45.397Z,5.10
2018-09-06T22:30:13.711Z,5.08
2018-09-06T22:32:41.960Z,4.55
2018-09-06T22:35:10.630Z,5.17
2018-09-06T22:37:38.931Z,4.92
2018-09-06T22:40:07.190Z,5.03
2018-09-06T22:42:35.715Z,4.72
2018-09-06T22:45:04.166Z,4.72
2018-09-06T22:47:32.423Z,5.03
2018-09-06T22:50:00.906Z,5.00
2018-09-06T22:52:29.133Z,4.75
2018-09-06T22:54:57.378Z,4.60
2018-09-06T22:57:25.642Z,4.80
2018-09-06T22:59:53.964Z,4.67
2018-09-06T23:02:22.254Z,4.47
2018-09-06T23:04:51.867Z,5.08
2018-09-06T23:07:20.106Z,4.55
2018-09-06T23:09:48.417Z,4.60
2018-09-06T23:12:17.002Z,4.83
2018-09-06T23:14:45.221Z,4.95
2018-09-06T23:17:13.461Z,4.70
2018-09-06T23:19:41.729Z,4.85
2018-09-06T23:22:10.087Z,4.42
2018-09-06T23:24:38.305Z,4.60
2018-09-06T23:27:06.814Z,4.55
2018-09-06T23:29:35.038Z,4.80
2018-09-06T23:32:03.334Z,4.55
2018-09-06T23:34:36.011Z,4.60
2018-09-06T23:37:04.845Z,4.55
2018-09-06T23:39:33.338Z,4.22
2018-09-06T23:42:01.781Z,4.42
2018-09-06T23:44:30.009Z,4.25
2018-09-06T23:46:58.472Z,4.33
2018-09-06T23:49:27.515Z,4.12
2018-09-06T23:51:55.751Z,4.12
2018-09-06T23:54:24.102Z,4.30
2018-09-06T23:56:52.853Z,4.50
2018-09-06T23:59:21.067Z,4.80
